createdAt,value
2023-08-08T00:00:30.101Z,98234.94
2023-08-08T00:02:56.902Z,98248.16
2023-08-08T00:05:23.738Z,98240.06
2023-08-08T00:07:50.476Z,98246.25
2023-08-08T00:10:17.221Z,98254.34
2023-08-08T00:12:44.058Z,98257.06
2023-08-08T00:15:10.911Z,98247.34
2023-08-08T00:17:37.678Z,98251.13
2023-08-08T00:20:05.108Z,98251.44
2023-08-08T00:22:31.777Z,98250.34
2023-08-08T00:24:59.250Z,98249.06
2023-08-08T00:27:26.207Z,98245.09
2023-08-08T00:29:54.363Z,98248.88
2023-08-08T00:32:21.106Z,98242.72
2023-08-08T00:34:47.842Z,98241.59
2023-08-08T00:37:14.615Z,98236.03
2023-08-08T00:39:43.575Z,98232.22
2023-08-08T00:42:10.304Z,98230.97
2023-08-08T00:44:38.654Z,98225.19
2023-08-08T00:47:05.396Z,98229.81
2023-08-08T00:49:32.093Z,98220.94
2023-08-08T00:51:58.892Z,98229.03
2023-08-08T00:54:25.699Z,98228.22
2023-08-08T00:56:52.620Z,98233.28
2023-08-08T00:59:20.090Z,98221.72
2023-08-08T01:01:46.907Z,98220.44
2023-08-08T01:04:13.779Z,98215.84
2023-08-08T01:06:49.236Z,98214.25
2023-08-08T01:09:45.202Z,98210.56
2023-08-08T01:12:12.581Z,98207.88
2023-08-08T01:14:39.842Z,98214.88
2023-08-08T01:17:06.568Z,98216.66
2023-08-08T01:19:33.914Z,98216.28
2023-08-08T01:22:04.357Z,98214.69
2023-08-08T01:24:31.384Z,98213.13
2023-08-08T01:26:58.143Z,98218.50
2023-08-08T01:29:24.845Z,98215.31
2023-08-08T01:31:51.637Z,98212.13
2023-08-08T01:34:18.333Z,98209.75
2023-08-08T01:36:58.630Z,98217.53
2023-08-08T01:39:28.796Z,98210.56
2023-08-08T01:41:56.353Z,98210.88
2023-08-08T01:44:24.421Z,98204.19
2023-08-08T01:46:51.201Z,98201.50
2023-08-08T01:49:17.845Z,98199.59
2023-08-08T01:51:44.522Z,98208.78
2023-08-08T01:54:11.224Z,98206.41
2023-08-08T01:56:37.898Z,98208.00
2023-08-08T01:59:04.609Z,98216.09
2023-08-08T02:01:31.274Z,98209.09
2023-08-08T02:03:58.077Z,98209.91
2023-08-08T02:06:24.871Z,98201.66
2023-08-08T02:08:51.547Z,98195.78
2023-08-08T02:11:18.235Z,98194.19
2023-08-08T02:13:44.938Z,98195.63
2023-08-08T02:16:11.647Z,98191.34
2023-08-08T02:18:41.764Z,98188.16
2023-08-08T02:21:09.157Z,98186.69
2023-08-08T02:23:35.850Z,98182.91
2023-08-08T02:26:02.649Z,98179.09
2023-08-08T02:28:29.349Z,98182.91
2023-08-08T02:30:56.407Z,98188.63
2023-08-08T02:33:23.087Z,98188.13
2023-08-08T02:35:49.874Z,98196.22
2023-08-08T02:38:16.515Z,98194.31
2023-08-08T02:40:43.192Z,98191.00
2023-08-08T02:43:12.007Z,98187.16
2023-08-08T02:45:38.768Z,98187.47
2023-08-08T02:48:06.159Z,98190.16
2023-08-08T02:50:32.899Z,98194.94
2023-08-08T02:52:59.637Z,98195.56
2023-08-08T02:55:26.292Z,98195.56
2023-08-08T02:57:53.019Z,98188.88
2023-08-08T03:00:19.719Z,98189.19
2023-08-08T03:02:46.486Z,98189.19
2023-08-08T03:05:13.226Z,98191.75
2023-08-08T03:07:40.074Z,98184.78
2023-08-08T03:10:07.512Z,98187.16
2023-08-08T03:12:34.273Z,98190.16
2023-08-08T03:15:01.020Z,98191.25
2023-08-08T03:17:27.744Z,98182.69
2023-08-08T03:19:54.569Z,98183.31
2023-08-08T03:22:21.395Z,98180.63
2023-08-08T03:24:48.092Z,98179.81
2023-08-08T03:27:14.766Z,98175.53
2023-08-08T03:29:41.478Z,98177.75
2023-08-08T03:32:08.303Z,98182.34
2023-08-08T03:34:35.034Z,98188.84
2023-08-08T03:37:01.790Z,98188.03
2023-08-08T03:39:29.190Z,98192.66
2023-08-08T03:41:55.978Z,98189.16
2023-08-08T03:44:22.669Z,98187.25
2023-08-08T03:46:49.453Z,98195.44
2023-08-08T03:49:16.298Z,98196.06
2023-08-08T03:51:43.020Z,98191.97
2023-08-08T03:54:09.800Z,98190.72
2023-08-08T03:56:36.462Z,98199.16
2023-08-08T03:59:03.172Z,98196.25
2023-08-08T04:01:29.842Z,98195.94
2023-08-08T04:03:56.602Z,98206.06
2023-08-08T04:06:23.276Z,98198.09
2023-08-08T04:08:50.036Z,98209.84
2023-08-08T04:11:17.098Z,98203.66
2023-08-08T04:13:43.950Z,98200.91
2023-08-08T04:16:10.624Z,98201.09
2023-08-08T04:18:37.416Z,98198.72
2023-08-08T04:21:04.107Z,98200.13
2023-08-08T04:23:30.832Z,98205.53
2023-08-08T04:25:57.479Z,98198.22
2023-08-08T04:28:24.262Z,98199.31
2023-08-08T04:30:51.012Z,98202.31
2023-08-08T04:33:17.707Z,98194.84
2023-08-08T04:35:44.436Z,98192.34
2023-08-08T04:38:11.098Z,98199.13
2023-08-08T04:40:39.161Z,98199.44
2023-08-08T04:43:06.306Z,98200.25
2023-08-08T04:45:33.091Z,98198.53
2023-08-08T04:47:59.825Z,98192.50
2023-08-08T04:50:26.545Z,98192.22
2023-08-08T04:52:53.190Z,98199.00
2023-08-08T04:55:20.557Z,98194.44
2023-08-08T04:57:47.244Z,98191.06
2023-08-08T05:00:15.328Z,98193.75
2023-08-08T05:02:42.582Z,98195.97
2023-08-08T05:05:10.318Z,98191.06
2023-08-08T05:07:39.145Z,98190.59
2023-08-08T05:10:06.532Z,98189.47
2023-08-08T05:12:33.304Z,98180.41
2023-08-08T05:15:00.173Z,98182.31
2023-08-08T05:17:26.955Z,98185.81
2023-08-08T05:19:53.683Z,98183.41
2023-08-08T05:22:20.374Z,98192.28
2023-08-08T05:24:47.104Z,98191.81
2023-08-08T05:27:13.919Z,98190.22
2023-08-08T05:29:42.571Z,98180.84
2023-08-08T05:32:09.343Z,98184.97
2023-08-08T05:34:36.270Z,98175.28
2023-08-08T05:37:15.742Z,98177.50
2023-08-08T05:39:44.630Z,98173.22
2023-08-08T05:42:11.373Z,98179.69
2023-08-08T05:44:38.106Z,98183.19
2023-08-08T05:47:05.088Z,98175.41
2023-08-08T05:49:31.768Z,98177.00
2023-08-08T05:51:58.870Z,98188.25
2023-08-08T05:54:25.822Z,98190.66
2023-08-08T05:56:52.937Z,98182.56
2023-08-08T05:59:19.678Z,98182.88
2023-08-08T06:01:47.418Z,98178.28
2023-08-08T06:04:15.226Z,98176.69
2023-08-08T06:06:42.431Z,98179.38
2023-08-08T06:09:09.946Z,98187.22
2023-08-08T06:11:36.691Z,98181.19
2023-08-08T06:14:03.889Z,98180.41
2023-08-08T06:16:30.772Z,98185.16
2023-08-08T06:18:57.648Z,98187.03
2023-08-08T06:21:24.353Z,98181.03
2023-08-08T06:23:51.446Z,98183.50
2023-08-08T06:26:18.251Z,98174.91
2023-08-08T06:28:45.095Z,98178.22
2023-08-08T06:31:12.020Z,98179.84
2023-08-08T06:33:38.686Z,98184.41
2023-08-08T06:36:05.761Z,98185.69
2023-08-08T06:38:35.158Z,98186.31
2023-08-08T06:41:03.638Z,98190.91
2023-08-08T06:43:31.468Z,98187.72
2023-08-08T06:45:58.251Z,98181.22
2023-08-08T06:48:25.380Z,98190.09
2023-08-08T06:50:52.102Z,98186.31
2023-08-08T06:53:19.320Z,98193.00
2023-08-08T06:55:46.028Z,98191.69
2023-08-08T06:58:12.723Z,98182.03
2023-08-08T07:00:39.416Z,98178.53
2023-08-08T07:03:06.520Z,98172.06
2023-08-08T07:05:33.582Z,98175.53
2023-08-08T07:08:00.210Z,98175.84
2023-08-08T07:10:28.184Z,98183.13
2023-08-08T07:12:55.041Z,98177.75
2023-08-08T07:15:21.799Z,98179.03
2023-08-08T07:17:48.520Z,98169.06
2023-08-08T07:20:15.400Z,98174.91
2023-08-08T07:22:42.057Z,98164.94
2023-08-08T07:25:09.151Z,98163.53
2023-08-08T07:27:35.972Z,98167.84
2023-08-08T07:30:04.032Z,98176.22
2023-08-08T07:32:33.001Z,98166.53
2023-08-08T07:35:02.534Z,98163.38
2023-08-08T07:37:29.238Z,98159.56
2023-08-08T07:39:56.173Z,98170.63
2023-08-08T07:42:22.923Z,98166.38
2023-08-08T07:44:49.584Z,98167.94
2023-08-08T07:47:16.274Z,98165.44
2023-08-08T07:49:42.992Z,98161.94
2023-08-08T07:52:09.725Z,98163.84
2023-08-08T07:54:36.448Z,98163.06
2023-08-08T07:57:03.306Z,98158.75
2023-08-08T07:59:29.982Z,98164.94
2023-08-08T08:01:56.653Z,98154.66
2023-08-08T08:04:23.329Z,98154.34
2023-08-08T08:06:49.992Z,98165.00
2023-08-08T08:09:16.618Z,98160.41
2023-08-08T08:11:43.271Z,98163.41
2023-08-08T08:14:09.907Z,98167.69
2023-08-08T08:16:36.802Z,98163.09
2023-08-08T08:19:03.593Z,98169.28
2023-08-08T08:21:30.936Z,98167.88
2023-08-08T08:23:57.585Z,98165.69
2023-08-08T08:26:24.235Z,98165.69
2023-08-08T08:28:50.866Z,98163.63
2023-08-08T08:31:17.551Z,98161.72
2023-08-08T08:33:44.532Z,98154.13
2023-08-08T08:36:12.088Z,98152.72
2023-08-08T08:38:40.154Z,98151.00
2023-08-08T08:41:06.863Z,98141.81
2023-08-08T08:43:33.526Z,98141.81
2023-08-08T08:46:01.756Z,98146.09
2023-08-08T08:48:28.510Z,98142.00
2023-08-08T08:50:55.187Z,98145.16
2023-08-08T08:53:23.672Z,98152.63
2023-08-08T08:55:50.379Z,98144.06
2023-08-08T08:58:19.914Z,98150.09
2023-08-08T09:00:47.048Z,98137.75
2023-08-08T09:03:14.286Z,98144.13
2023-08-08T09:05:42.317Z,98147.59
2023-08-08T09:08:10.427Z,98145.09
2023-08-08T09:10:37.175Z,98147.47
2023-08-08T09:13:03.936Z,98144.16
2023-08-08T09:15:34.210Z,98140.34
2023-08-08T09:18:01.530Z,98142.41
2023-08-08T09:20:31.478Z,98143.72
2023-08-08T09:22:58.193Z,98139.91
2023-08-08T09:25:25.165Z,98130.38
2023-08-08T09:27:53.100Z,98128.34
2023-08-08T09:30:19.744Z,98121.84
2023-08-08T09:32:46.638Z,98131.06
2023-08-08T09:35:13.328Z,98121.53
2023-08-08T09:37:40.169Z,98124.56
2023-08-08T09:40:09.136Z,98123.94
2023-08-08T09:42:36.276Z,98132.19
2023-08-08T09:45:03.325Z,98127.44
2023-08-08T09:47:32.422Z,98115.38
2023-08-08T09:50:05.747Z,98120.78
2023-08-08T09:52:32.487Z,98115.72
2023-08-08T09:54:59.140Z,98115.72
2023-08-08T09:57:25.878Z,98119.53
2023-08-08T09:59:52.950Z,98118.41
2023-08-08T10:02:19.981Z,98114.59
2023-08-08T10:04:47.086Z,98114.75
2023-08-08T10:07:13.788Z,98119.22
2023-08-08T10:09:40.490Z,98115.72
2023-08-08T10:12:07.580Z,98110.19
2023-08-08T10:14:36.392Z,98115.72
2023-08-08T10:17:07.455Z,98111.31
2023-08-08T10:19:34.572Z,98101.31
2023-08-08T10:22:08.088Z,98111.63
2023-08-08T10:24:36.665Z,98110.84
2023-08-08T10:27:05.377Z,98105.59
2023-08-08T10:29:33.602Z,98099.25
2023-08-08T10:32:03.093Z,98095.75
2023-08-08T10:34:46.124Z,98093.22
2023-08-08T10:37:14.031Z,98104.66
2023-08-08T10:39:53.421Z,98094.78
2023-08-08T10:42:20.749Z,98104.19
2023-08-08T10:44:54.425Z,98101.94
2023-08-08T10:47:32.109Z,98103.69
2023-08-08T10:50:07.740Z,98098.13
2023-08-08T10:52:38.828Z,98097.81
2023-08-08T10:55:06.015Z,98097.97
2023-08-08T10:57:32.679Z,98101.13
2023-08-08T11:00:17.621Z,98104.00
2023-08-08T11:02:45.475Z,98087.78
2023-08-08T11:05:12.232Z,98091.44
2023-08-08T11:07:38.916Z,98106.69
2023-08-08T11:10:05.798Z,98109.53
2023-08-08T11:12:32.610Z,98112.38
2023-08-08T11:14:59.873Z,98101.75
2023-08-08T11:17:26.561Z,98097.63
2023-08-08T11:19:53.261Z,98091.56
2023-08-08T11:22:22.576Z,98093.31
2023-08-08T11:24:49.794Z,98100.59
2023-08-08T11:27:42.455Z,98096.94
2023-08-08T11:30:03.847Z,98087.06
2023-08-08T11:32:30.592Z,98088.13
2023-08-08T11:34:57.285Z,98087.97
2023-08-08T11:37:24.384Z,98096.38
2023-08-08T11:39:51.112Z,98092.69
2023-08-08T11:42:19.391Z,98088.84
2023-08-08T11:44:46.146Z,98082.81
2023-08-08T11:47:12.826Z,98090.41
2023-08-08T11:49:41.462Z,98091.66
2023-08-08T11:52:08.550Z,98093.69
2023-08-08T11:54:37.573Z,98091.59
2023-08-08T11:57:04.329Z,98092.72
2023-08-08T11:59:32.353Z,98094.44
2023-08-08T12:01:59.309Z,98093.47
2023-08-08T12:04:27.860Z,98100.94
2023-08-08T12:07:04.718Z,98090.38
2023-08-08T12:09:34.421Z,98091.44
2023-08-08T12:12:06.616Z,98087.81
2023-08-08T12:14:50.902Z,98087.59
2023-08-08T12:17:23.820Z,98097.44
2023-08-08T12:19:50.602Z,98098.38
2023-08-08T12:22:17.696Z,98096.28
2023-08-08T12:24:44.359Z,98101.81
2023-08-08T12:27:11.050Z,98097.84
2023-08-08T12:29:39.119Z,98089.41
2023-08-08T12:32:08.882Z,98094.94
2023-08-08T12:34:36.655Z,98087.78
2023-08-08T12:37:03.782Z,98091.41
2023-08-08T12:39:31.017Z,98101.72
2023-08-08T12:41:57.846Z,98100.38
2023-08-08T12:44:24.497Z,98101.97
2023-08-08T12:46:51.198Z,98095.22
2023-08-08T12:49:17.899Z,98102.25
2023-08-08T12:51:44.616Z,98096.81
2023-08-08T12:54:11.268Z,98104.28
2023-08-08T12:56:38.068Z,98095.03
2023-08-08T12:59:04.997Z,98100.44
2023-08-08T13:01:31.712Z,98093.56
2023-08-08T13:04:16.666Z,98085.56
2023-08-08T13:06:45.251Z,98082.19
2023-08-08T13:09:12.014Z,98076.78
2023-08-08T13:11:38.927Z,98082.78
2023-08-08T13:14:05.658Z,98084.03
2023-08-08T13:16:32.567Z,98071.94
2023-08-08T13:18:59.267Z,98069.03
2023-08-08T13:21:26.014Z,98074.91
2023-08-08T13:23:52.635Z,98066.22
2023-08-08T13:26:19.314Z,98064.88
2023-08-08T13:28:46.010Z,98067.59
2023-08-08T13:31:12.841Z,98053.41
2023-08-08T13:33:39.675Z,98052.84
2023-08-08T13:36:06.694Z,98056.81
2023-08-08T13:38:33.463Z,98060.78
2023-08-08T13:41:01.405Z,98064.63
2023-08-08T13:43:28.312Z,98055.72
2023-08-08T13:45:55.083Z,98050.16
2023-08-08T13:48:21.850Z,98050.06
2023-08-08T13:50:48.557Z,98044.28
2023-08-08T13:53:15.181Z,98055.91
2023-08-08T13:55:42.317Z,98048.91
2023-08-08T13:58:09.270Z,98053.00
2023-08-08T14:00:36.004Z,98045.28
2023-08-08T14:03:03.209Z,98043.50
2023-08-08T14:05:31.770Z,98040.81
2023-08-08T14:07:58.419Z,98040.13
2023-08-08T14:10:25.690Z,98032.88
2023-08-08T14:12:52.399Z,98036.97
2023-08-08T14:15:19.065Z,98040.56
2023-08-08T14:17:46.635Z,98035.94
2023-08-08T14:20:13.575Z,98041.38
2023-08-08T14:22:40.300Z,98040.34
2023-08-08T14:25:07.401Z,98036.97
2023-08-08T14:27:34.122Z,98042.03
2023-08-08T14:30:01.198Z,98050.19
2023-08-08T14:32:27.946Z,98052.56
2023-08-08T14:34:55.127Z,98049.84
2023-08-08T14:37:22.614Z,98053.16
2023-08-08T14:39:49.290Z,98056.66
2023-08-08T14:42:15.987Z,98049.41
2023-08-08T14:44:42.670Z,98052.47
2023-08-08T14:47:09.484Z,98055.06
2023-08-08T14:49:36.146Z,98056.31
2023-08-08T14:52:03.041Z,98057.44
2023-08-08T14:54:29.910Z,98054.50
2023-08-08T14:56:56.623Z,98061.50
2023-08-08T14:59:24.226Z,98054.97
2023-08-08T15:01:50.955Z,98052.69
2023-08-08T15:04:17.686Z,98049.63
2023-08-08T15:06:44.400Z,98044.19
2023-08-08T15:09:11.064Z,98047.59
2023-08-08T15:11:38.052Z,98056.88
2023-08-08T15:14:05.024Z,98060.38
2023-08-08T15:16:31.703Z,98060.81
2023-08-08T15:18:58.351Z,98066.72
2023-08-08T15:21:25.041Z,98063.19
2023-08-08T15:23:51.727Z,98065.81
2023-08-08T15:26:20.441Z,98060.38
2023-08-08T15:28:49.258Z,98065.47
2023-08-08T15:31:17.764Z,98062.09
2023-08-08T15:33:44.630Z,98071.78
2023-08-08T15:36:11.359Z,98056.31
2023-08-08T15:38:38.022Z,98060.81
2023-08-08T15:41:04.708Z,98069.06
2023-08-08T15:43:31.616Z,98067.13
2023-08-08T15:45:59.608Z,98060.94
2023-08-08T15:48:27.052Z,98054.81
2023-08-08T15:50:53.894Z,98060.47
2023-08-08T15:53:21.000Z,98061.63
2023-08-08T15:55:47.767Z,98058.56
2023-08-08T15:58:14.464Z,98063.53
2023-08-08T16:00:41.185Z,98065.91
2023-08-08T16:03:07.957Z,98069.75
2023-08-08T16:05:34.761Z,98067.03
2023-08-08T16:08:02.801Z,98069.06
2023-08-08T16:10:30.096Z,98071.00
2023-08-08T16:12:56.787Z,98074.72
2023-08-08T16:15:25.276Z,98077.00
2023-08-08T16:17:52.124Z,98076.19
2023-08-08T16:20:19.700Z,98071.56
2023-08-08T16:22:47.082Z,98085.91
2023-08-08T16:25:14.375Z,98073.50
2023-08-08T16:27:42.169Z,98089.19
2023-08-08T16:30:09.885Z,98086.72
2023-08-08T16:32:36.749Z,98092.03
2023-08-08T16:35:03.503Z,98098.94
2023-08-08T16:37:30.093Z,98093.84
2023-08-08T16:39:56.914Z,98095.19
2023-08-08T16:42:23.525Z,98092.69
2023-08-08T16:44:50.235Z,98089.22
2023-08-08T16:47:16.918Z,98092.59
2023-08-08T16:49:43.525Z,98095.66
2023-08-08T16:52:10.318Z,98111.13
2023-08-08T16:54:37.119Z,98104.47
2023-08-08T16:57:03.913Z,98099.94
2023-08-08T16:59:30.591Z,98098.72
2023-08-08T17:01:57.254Z,98100.41
2023-08-08T17:04:24.011Z,98108.09
2023-08-08T17:06:50.660Z,98104.56
2023-08-08T17:09:18.824Z,98111.13
2023-08-08T17:11:45.491Z,98112.84
2023-08-08T17:14:12.101Z,98104.88
2023-08-08T17:16:39.584Z,98093.25
2023-08-08T17:19:06.865Z,98100.94
2023-08-08T17:21:34.313Z,98098.69
2023-08-08T17:24:02.903Z,98097.53
2023-08-08T17:26:29.581Z,98098.22
2023-08-08T17:28:56.223Z,98096.97
2023-08-08T17:31:22.912Z,98102.75
2023-08-08T17:33:50.210Z,98101.16
2023-08-08T17:36:16.898Z,98099.56
2023-08-08T17:38:43.544Z,98095.75
2023-08-08T17:41:10.170Z,98102.19
2023-08-08T17:43:36.932Z,98094.03
2023-08-08T17:46:04.973Z,98089.38
2023-08-08T17:48:32.313Z,98088.16
2023-08-08T17:50:59.710Z,98101.72
2023-08-08T17:53:27.156Z,98098.19
2023-08-08T17:55:53.880Z,98095.50
2023-08-08T17:58:20.699Z,98097.09
2023-08-08T18:00:47.857Z,98094.72
2023-08-08T18:03:14.558Z,98098.88
2023-08-08T18:05:41.372Z,98100.47
2023-08-08T18:08:08.077Z,98095.72
2023-08-08T18:10:36.462Z,98089.03
2023-08-08T18:13:04.154Z,98090.19
2023-08-08T18:15:30.832Z,98092.88
2023-08-08T18:17:58.108Z,98090.03
2023-08-08T18:20:24.924Z,98089.28
2023-08-08T18:22:53.336Z,98092.31
2023-08-08T18:25:20.425Z,98093.00
2023-08-08T18:27:47.218Z,98097.28
2023-08-08T18:30:16.573Z,98086.91
2023-08-08T18:32:43.927Z,98090.38
2023-08-08T18:35:10.716Z,98093.75
2023-08-08T18:37:38.838Z,98093.75
2023-08-08T18:40:12.557Z,98096.38
2023-08-08T18:42:39.780Z,98100.22
2023-08-08T18:45:07.327Z,98091.97
2023-08-08T18:47:34.012Z,98093.53
2023-08-08T18:50:00.727Z,98095.47
2023-08-08T18:52:28.070Z,98096.56
2023-08-08T18:54:54.814Z,98094.53
2023-08-08T18:57:21.484Z,98097.16
2023-08-08T18:59:48.340Z,98100.19
2023-08-08T19:02:15.109Z,98102.09
2023-08-08T19:04:41.994Z,98097.00
2023-08-08T19:07:08.819Z,98099.38
2023-08-08T19:09:35.647Z,98097.00
2023-08-08T19:12:02.646Z,98100.88
2023-08-08T19:14:29.605Z,98106.28
2023-08-08T19:16:56.260Z,98107.38
2023-08-08T19:19:22.919Z,98101.63
2023-08-08T19:21:49.670Z,98111.22
2023-08-08T19:24:17.581Z,98106.47
2023-08-08T19:26:44.557Z,98100.25
2023-08-08T19:29:11.303Z,98106.47
2023-08-08T19:31:37.940Z,98105.25
2023-08-08T19:34:07.588Z,98099.03
2023-08-08T19:36:34.875Z,98103.16
2023-08-08T19:39:01.539Z,98108.91
2023-08-08T19:41:28.290Z,98108.91
2023-08-08T19:43:55.023Z,98101.13
2023-08-08T19:46:21.949Z,98111.97
2023-08-08T19:48:49.804Z,98109.59
2023-08-08T19:51:16.622Z,98111.97
2023-08-08T19:53:43.298Z,98108.78
2023-08-08T19:56:10.008Z,98104.50
2023-08-08T19:58:36.752Z,98103.03
2023-08-08T20:01:03.523Z,98100.09
2023-08-08T20:03:30.441Z,98110.13
2023-08-08T20:05:57.256Z,98106.50
2023-08-08T20:08:24.064Z,98109.88
2023-08-08T20:10:51.042Z,98105.59
2023-08-08T20:13:17.761Z,98101.59
2023-08-08T20:15:44.534Z,98103.22
2023-08-08T20:18:11.213Z,98094.63
2023-08-08T20:20:37.988Z,98098.47
2023-08-08T20:23:04.674Z,98096.41
2023-08-08T20:25:31.374Z,98096.75
2023-08-08T20:27:58.100Z,98093.91
2023-08-08T20:30:24.838Z,98094.38
2023-08-08T20:32:51.629Z,98092.91
2023-08-08T20:35:18.419Z,98095.63
2023-08-08T20:37:45.307Z,98093.22
2023-08-08T20:40:11.999Z,98093.56
2023-08-08T20:42:38.713Z,98087.69
2023-08-08T20:45:06.695Z,98084.84
2023-08-08T20:47:33.450Z,98084.38
2023-08-08T20:50:00.203Z,98086.31
2023-08-08T20:52:26.819Z,98082.16
2023-08-08T20:54:53.520Z,98088.38
2023-08-08T20:57:20.278Z,98080.91
2023-08-08T20:59:47.019Z,98083.28
2023-08-08T21:02:13.973Z,98075.69
2023-08-08T21:04:40.750Z,98077.59
2023-08-08T21:07:13.043Z,98072.19
2023-08-08T21:09:40.365Z,98076.03
2023-08-08T21:12:07.246Z,98076.03
2023-08-08T21:14:33.954Z,98076.34
2023-08-08T21:17:01.040Z,98086.38
2023-08-08T21:19:28.195Z,98082.22
2023-08-08T21:21:55.632Z,98090.81
2023-08-08T21:24:22.860Z,98081.91
2023-08-08T21:26:49.735Z,98079.53
2023-08-08T21:29:16.488Z,98082.22
2023-08-08T21:31:43.178Z,98083.41
2023-08-08T21:34:09.839Z,98070.22
2023-08-08T21:36:36.546Z,98067.38
2023-08-08T21:39:04.025Z,98072.34
2023-08-08T21:41:30.913Z,98071.53
2023-08-08T21:43:57.585Z,98062.59
2023-08-08T21:46:24.289Z,98071.84
2023-08-08T21:48:51.406Z,98068.34
2023-08-08T21:51:18.145Z,98058.63
2023-08-08T21:53:45.045Z,98066.63
2023-08-08T21:56:11.909Z,98069.34
2023-08-08T21:58:38.930Z,98051.16
2023-08-08T22:01:06.502Z,98059.19
2023-08-08T22:03:33.318Z,98046.56
2023-08-08T22:05:59.998Z,98047.22
2023-08-08T22:08:26.856Z,98054.88
2023-08-08T22:10:53.897Z,98045.63
2023-08-08T22:13:22.073Z,98050.59
2023-08-08T22:15:48.897Z,98053.75
2023-08-08T22:18:16.907Z,98053.28
2023-08-08T22:20:43.805Z,98055.53
2023-08-08T22:23:19.572Z,98047.72
2023-08-08T22:25:47.566Z,98056.50
2023-08-08T22:28:14.239Z,98051.44
2023-08-08T22:30:40.941Z,98058.31
2023-08-08T22:33:07.686Z,98055.59
2023-08-08T22:35:34.347Z,98057.38
2023-08-08T22:38:01.024Z,98058.16
2023-08-08T22:40:27.732Z,98063.91
2023-08-08T22:42:54.390Z,98066.94
2023-08-08T22:45:21.126Z,98058.81
2023-08-08T22:47:47.815Z,98073.47
2023-08-08T22:50:14.493Z,98069.63
2023-08-08T22:52:41.323Z,98065.69
2023-08-08T22:55:08.376Z,98060.28
2023-08-08T22:57:35.200Z,98071.44
2023-08-08T23:00:02.235Z,98067.63
2023-08-08T23:02:29.006Z,98070.50
2023-08-08T23:04:56.508Z,98075.25
2023-08-08T23:07:23.311Z,98068.59
2023-08-08T23:09:49.989Z,98072.16
2023-08-08T23:12:17.188Z,98071.00
2023-08-08T23:14:44.129Z,98070.25
2023-08-08T23:17:11.041Z,98068.63
2023-08-08T23:19:38.446Z,98059.88
2023-08-08T23:22:05.233Z,98052.88
2023-08-08T23:24:31.909Z,98058.63
2023-08-08T23:26:58.574Z,98052.88
2023-08-08T23:29:25.800Z,98053.38
2023-08-08T23:31:52.602Z,98048.31
2023-08-08T23:34:19.462Z,98052.16
2023-08-08T23:36:46.126Z,98052.94
2023-08-08T23:39:13.597Z,98036.25
2023-08-08T23:41:40.339Z,98032.72
2023-08-08T23:44:07.090Z,98031.41
2023-08-08T23:46:34.004Z,98031.16
2023-08-08T23:49:00.685Z,98039.59
2023-08-08T23:51:27.445Z,98040.25
2023-08-08T23:53:54.089Z,98037.06
2023-08-08T23:56:21.242Z,98041.72
2023-08-08T23:58:48.027Z,98034.03
